createdAt,value
2023-03-10T00:00:12.587Z,1.23
2023-03-10T00:03:01.309Z,1.65
2023-03-10T00:05:50.036Z,2.03
2023-03-10T00:08:40.338Z,0.55
2023-03-10T00:11:29.090Z,0.30
2023-03-10T00:14:18.762Z,1.52
2023-03-10T00:17:07.493Z,1.17
2023-03-10T00:19:56.128Z,1.73
2023-03-10T00:22:44.696Z,0.90
2023-03-10T00:25:34.731Z,0.50
2023-03-10T00:28:23.634Z,0.30
2023-03-10T00:31:14.902Z,0.32
2023-03-10T00:34:03.580Z,0.85
2023-03-10T00:36:52.179Z,0.98
2023-03-10T00:39:40.859Z,0.20
2023-03-10T00:42:30.832Z,0.52
2023-03-10T00:45:19.604Z,1.92
2023-03-10T00:48:08.628Z,0.90
2023-03-10T00:50:57.287Z,0.28
2023-03-10T00:53:46.467Z,1.15
2023-03-10T00:56:35.132Z,0.35
2023-03-10T00:59:25.137Z,0.38
2023-03-10T01:02:13.729Z,0.70
2023-03-10T01:05:02.430Z,0.63
2023-03-10T01:07:51.042Z,0.28
2023-03-10T01:10:39.616Z,0.40
2023-03-10T01:13:28.523Z,0.20
2023-03-10T01:16:18.611Z,0.47
2023-03-10T01:19:07.565Z,0.30
2023-03-10T01:21:56.234Z,0.30
2023-03-10T01:24:44.808Z,1.85
2023-03-10T01:27:33.483Z,2.42
2023-03-10T01:30:22.440Z,1.20
2023-03-10T01:33:13.199Z,0.30
2023-03-10T01:36:01.878Z,0.40
2023-03-10T01:38:51.089Z,0.60
2023-03-10T01:41:40.421Z,0.70
2023-03-10T01:44:29.030Z,0.40
2023-03-10T01:47:17.656Z,0.50
2023-03-10T01:50:09.524Z,0.15
2023-03-10T01:52:58.543Z,0.40
2023-03-10T01:55:52.373Z,1.40
2023-03-10T01:58:42.886Z,0.82
2023-03-10T02:01:31.646Z,0.30
2023-03-10T02:04:24.444Z,0.20
2023-03-10T02:07:14.963Z,0.30
2023-03-10T02:10:04.088Z,0.75
2023-03-10T02:12:52.665Z,0.30
2023-03-10T02:15:41.565Z,0.30
2023-03-10T02:18:31.765Z,0.30
2023-03-10T02:21:27.631Z,1.65
2023-03-10T02:24:24.300Z,0.17
2023-03-10T02:27:17.631Z,0.20
2023-03-10T02:30:09.195Z,0.20
2023-03-10T02:33:00.813Z,1.15
2023-03-10T02:35:49.500Z,0.10
2023-03-10T02:38:38.162Z,0.20
2023-03-10T02:41:30.518Z,0.20
2023-03-10T02:44:22.447Z,2.83
2023-03-10T02:47:11.783Z,1.00
2023-03-10T02:50:00.365Z,0.63
2023-03-10T02:52:52.725Z,0.13
2023-03-10T02:55:41.582Z,0.25
2023-03-10T02:58:31.938Z,1.70
2023-03-10T03:01:22.430Z,0.20
2023-03-10T03:04:11.152Z,0.10
2023-03-10T03:06:59.871Z,0.00
2023-03-10T03:09:48.441Z,0.45
2023-03-10T03:12:37.047Z,0.45
2023-03-10T03:15:26.007Z,1.95
2023-03-10T03:18:16.034Z,0.30
2023-03-10T03:21:08.680Z,0.20
2023-03-10T03:23:57.257Z,0.52
2023-03-10T03:26:46.174Z,0.30
2023-03-10T03:29:35.108Z,0.10
2023-03-10T03:32:23.711Z,0.10
2023-03-10T03:35:16.177Z,0.55
2023-03-10T03:38:05.330Z,0.03
2023-03-10T03:40:53.898Z,0.20
2023-03-10T03:43:42.640Z,2.20
2023-03-10T03:46:31.245Z,0.77
2023-03-10T03:49:19.921Z,0.00
2023-03-10T03:52:10.132Z,0.15
2023-03-10T03:54:58.712Z,0.20
2023-03-10T03:57:47.741Z,2.70
2023-03-10T04:00:36.544Z,0.10
2023-03-10T04:03:25.303Z,0.22
2023-03-10T04:06:13.947Z,0.20
2023-03-10T04:09:03.977Z,0.10
2023-03-10T04:11:52.565Z,0.85
2023-03-10T04:14:41.168Z,0.35
2023-03-10T04:17:29.786Z,0.40
2023-03-10T04:20:18.567Z,0.22
2023-03-10T04:23:07.163Z,1.05
2023-03-10T04:25:57.468Z,0.35
2023-03-10T04:28:46.112Z,0.17
2023-03-10T04:31:34.853Z,0.10
2023-03-10T04:34:23.496Z,0.20
2023-03-10T04:37:12.131Z,0.20
2023-03-10T04:40:00.744Z,0.08
2023-03-10T04:42:50.830Z,0.35
2023-03-10T04:45:39.631Z,0.10
2023-03-10T04:48:28.285Z,1.90
2023-03-10T04:51:16.901Z,0.55
2023-03-10T04:54:05.600Z,0.28
2023-03-10T04:56:54.494Z,0.20
2023-03-10T04:59:44.615Z,0.73
2023-03-10T05:02:34.120Z,0.10
2023-03-10T05:05:22.747Z,2.95
2023-03-10T05:08:11.488Z,0.30
2023-03-10T05:11:00.141Z,0.10
2023-03-10T05:13:49.009Z,0.10
2023-03-10T05:16:39.037Z,0.50
2023-03-10T05:19:28.795Z,1.65
2023-03-10T05:22:17.567Z,0.28
2023-03-10T05:25:07.399Z,0.73
2023-03-10T05:27:56.039Z,0.20
2023-03-10T05:30:45.006Z,4.30
2023-03-10T05:33:35.034Z,2.55
2023-03-10T05:36:23.902Z,2.28
2023-03-10T05:39:13.125Z,4.68
2023-03-10T05:42:01.847Z,3.90
2023-03-10T05:44:50.550Z,2.65
2023-03-10T05:47:39.243Z,3.25
2023-03-10T05:50:29.401Z,0.93
2023-03-10T05:53:17.975Z,2.47
2023-03-10T05:56:07.991Z,3.42
2023-03-10T05:58:56.618Z,1.38
2023-03-10T06:01:45.297Z,1.65
2023-03-10T06:04:34.226Z,3.05
2023-03-10T06:07:24.219Z,2.38
2023-03-10T06:10:13.104Z,2.42
2023-03-10T06:13:01.782Z,2.00
2023-03-10T06:15:51.877Z,0.32
2023-03-10T06:18:40.595Z,1.23
2023-03-10T06:21:29.624Z,2.08
2023-03-10T06:24:19.715Z,1.33
2023-03-10T06:27:08.327Z,0.35
2023-03-10T06:29:56.914Z,2.22
2023-03-10T06:32:45.757Z,3.28
2023-03-10T06:35:34.923Z,1.63
2023-03-10T06:38:23.824Z,1.48
2023-03-10T06:41:14.323Z,2.92
2023-03-10T06:44:02.858Z,3.85
2023-03-10T06:46:51.508Z,1.63
2023-03-10T06:49:40.072Z,2.60
2023-03-10T06:52:28.766Z,1.52
2023-03-10T06:55:17.552Z,0.93
2023-03-10T06:58:07.582Z,1.20
2023-03-10T07:00:56.293Z,2.88
2023-03-10T07:03:47.206Z,2.78
2023-03-10T07:06:35.928Z,2.47
2023-03-10T07:09:24.652Z,4.85
2023-03-10T07:12:13.518Z,1.40
2023-03-10T07:15:03.879Z,2.92
2023-03-10T07:17:52.643Z,1.42
2023-03-10T07:20:42.233Z,1.10
2023-03-10T07:23:30.994Z,1.08
2023-03-10T07:26:19.984Z,0.40
2023-03-10T07:29:08.970Z,1.60
2023-03-10T07:31:59.234Z,1.67
2023-03-10T07:34:47.817Z,1.13
2023-03-10T07:37:39.812Z,1.00
2023-03-10T07:40:29.128Z,0.60
2023-03-10T07:43:17.844Z,2.00
2023-03-10T07:46:07.906Z,0.60
2023-03-10T07:49:00.643Z,1.15
2023-03-10T07:51:49.186Z,0.75
2023-03-10T07:54:37.880Z,0.55
2023-03-10T07:57:26.520Z,0.20
2023-03-10T08:00:16.540Z,0.57
2023-03-10T08:03:05.314Z,0.55
2023-03-10T08:05:55.667Z,0.30
2023-03-10T08:08:44.264Z,0.35
2023-03-10T08:11:32.980Z,0.63
2023-03-10T08:14:24.037Z,1.00
2023-03-10T08:17:12.662Z,0.47
2023-03-10T08:20:01.498Z,1.35
2023-03-10T08:22:51.627Z,0.40
2023-03-10T08:25:40.433Z,1.48
2023-03-10T08:28:30.621Z,0.32
2023-03-10T08:31:21.341Z,0.55
2023-03-10T08:34:10.193Z,2.35
2023-03-10T08:37:00.716Z,0.20
2023-03-10T08:39:53.906Z,0.20
2023-03-10T08:42:42.696Z,0.20
2023-03-10T08:45:36.584Z,1.08
2023-03-10T08:48:25.415Z,0.55
2023-03-10T08:51:16.116Z,0.30
2023-03-10T08:54:05.630Z,0.10
2023-03-10T08:56:55.876Z,0.17
2023-03-10T08:59:44.816Z,0.45
2023-03-10T09:02:33.745Z,0.30
2023-03-10T09:05:22.691Z,0.20
2023-03-10T09:08:11.407Z,0.15
2023-03-10T09:11:00.312Z,0.25
2023-03-10T09:13:50.466Z,0.25
2023-03-10T09:16:40.306Z,0.95
2023-03-10T09:19:29.330Z,0.43
2023-03-10T09:22:17.988Z,0.38
2023-03-10T09:25:07.509Z,0.10
2023-03-10T09:27:56.191Z,0.32
2023-03-10T09:30:46.292Z,0.00
2023-03-10T09:33:35.399Z,1.10
2023-03-10T09:36:24.030Z,0.17
2023-03-10T09:39:13.027Z,0.17
2023-03-10T09:42:36.938Z,0.75
2023-03-10T09:45:34.348Z,0.20
2023-03-10T09:48:41.368Z,0.10
2023-03-10T09:51:30.497Z,0.20
2023-03-10T09:54:39.541Z,0.13
2023-03-10T09:57:31.534Z,0.40
2023-03-10T10:00:24.138Z,0.17
2023-03-10T10:03:18.793Z,0.10
2023-03-10T10:06:09.502Z,0.28
2023-03-10T10:09:04.912Z,0.65
2023-03-10T10:11:54.134Z,2.30
2023-03-10T10:14:55.030Z,0.40
2023-03-10T10:18:05.265Z,0.28
2023-03-10T10:21:01.746Z,0.45
2023-03-10T10:23:54.384Z,5.20
2023-03-10T10:26:43.043Z,175.50
2023-03-10T10:29:36.497Z,48.00
2023-03-10T10:32:25.588Z,45.17
2023-03-10T10:35:16.390Z,70.90
2023-03-10T10:38:07.307Z,79.90
2023-03-10T10:41:04.596Z,72.45
2023-03-10T10:43:58.314Z,60.47
2023-03-10T10:46:53.399Z,60.95
2023-03-10T10:49:42.019Z,53.42
2023-03-10T10:52:30.799Z,50.35
2023-03-10T10:55:30.352Z,46.13
2023-03-10T10:58:29.676Z,45.65
2023-03-10T11:01:18.437Z,45.70
2023-03-10T11:04:08.897Z,41.40
2023-03-10T11:07:12.526Z,39.85
2023-03-10T11:10:01.574Z,42.30
2023-03-10T11:12:58.687Z,39.80
2023-03-10T11:15:54.311Z,40.67
2023-03-10T11:18:50.533Z,35.92
2023-03-10T11:21:45.358Z,36.55
2023-03-10T11:24:38.014Z,32.38
2023-03-10T11:27:37.416Z,31.33
2023-03-10T11:30:29.766Z,29.13
2023-03-10T11:33:25.748Z,25.00
2023-03-10T11:36:21.213Z,24.27
2023-03-10T11:39:14.653Z,21.42
2023-03-10T11:42:07.174Z,20.65
2023-03-10T11:45:04.188Z,18.98
2023-03-10T11:47:58.530Z,18.10
2023-03-10T11:50:52.835Z,19.73
2023-03-10T11:53:44.439Z,14.80
2023-03-10T11:56:33.698Z,17.45
2023-03-10T11:59:24.219Z,18.15
2023-03-10T12:02:17.510Z,13.43
2023-03-10T12:05:12.210Z,10.60
2023-03-10T12:08:05.377Z,16.45
2023-03-10T12:10:55.434Z,16.10
2023-03-10T12:13:45.988Z,15.52
2023-03-10T12:16:38.198Z,14.50
2023-03-10T12:19:26.846Z,13.05
2023-03-10T12:22:26.132Z,13.05
2023-03-10T12:25:50.144Z,11.52
2023-03-10T12:28:38.744Z,9.18
2023-03-10T12:31:48.184Z,8.85
2023-03-10T12:34:36.885Z,9.88
2023-03-10T12:37:25.495Z,8.88
2023-03-10T12:40:47.365Z,8.57
2023-03-10T12:43:56.970Z,7.13
2023-03-10T12:46:47.954Z,8.80
2023-03-10T12:49:39.418Z,7.07
2023-03-10T12:52:37.655Z,5.55
2023-03-10T12:55:27.916Z,5.43
2023-03-10T12:58:19.822Z,7.82
2023-03-10T13:01:13.747Z,5.07
2023-03-10T13:04:07.106Z,7.10
2023-03-10T13:07:03.492Z,7.68
2023-03-10T13:09:52.710Z,4.80
2023-03-10T13:12:48.637Z,4.80
2023-03-10T13:15:37.591Z,4.57
2023-03-10T13:18:27.653Z,3.42
2023-03-10T13:21:25.958Z,7.32
2023-03-10T13:24:26.805Z,4.00
2023-03-10T13:27:17.124Z,5.32
2023-03-10T13:30:12.529Z,3.28
2023-03-10T13:33:02.555Z,2.47
2023-03-10T13:35:52.572Z,4.18
2023-03-10T13:38:43.860Z,4.45
2023-03-10T13:41:37.369Z,3.80
2023-03-10T13:44:28.220Z,3.95
2023-03-10T13:47:19.397Z,3.50
2023-03-10T13:50:15.606Z,2.72
2023-03-10T13:53:05.533Z,3.35
2023-03-10T13:55:54.387Z,3.08
2023-03-10T13:58:43.739Z,1.65
2023-03-10T14:01:34.604Z,2.28
2023-03-10T14:04:42.110Z,2.03
2023-03-10T14:07:32.992Z,3.90
2023-03-10T14:10:23.347Z,3.85
2023-03-10T14:13:41.761Z,6.07
2023-03-10T14:16:49.857Z,4.63
2023-03-10T14:19:50.268Z,4.00
2023-03-10T14:22:41.366Z,1.67
2023-03-10T14:25:31.594Z,3.40
2023-03-10T14:28:24.096Z,5.38
2023-03-10T14:31:23.900Z,1.42
2023-03-10T14:34:14.368Z,2.90
2023-03-10T14:37:03.001Z,1.15
2023-03-10T14:39:51.623Z,3.08
2023-03-10T14:42:42.576Z,6.13
2023-03-10T14:45:32.890Z,2.60
2023-03-10T14:48:22.829Z,1.40
2023-03-10T14:51:25.670Z,1.08
2023-03-10T14:54:23.361Z,7.82
2023-03-10T14:57:13.012Z,2.50
2023-03-10T15:00:04.268Z,3.80
2023-03-10T15:02:52.942Z,0.95
2023-03-10T15:05:48.663Z,1.58
2023-03-10T15:08:37.957Z,1.02
2023-03-10T15:11:37.128Z,0.82
2023-03-10T15:14:26.353Z,1.77
2023-03-10T15:17:16.387Z,1.27
2023-03-10T15:20:08.415Z,10.25
2023-03-10T15:22:56.986Z,2.45
2023-03-10T15:25:46.431Z,1.50
2023-03-10T15:28:36.363Z,1.45
2023-03-10T15:31:25.983Z,4.63
2023-03-10T15:34:16.093Z,1.52
2023-03-10T15:37:07.331Z,2.00
2023-03-10T15:39:56.008Z,1.23
2023-03-10T15:42:45.101Z,0.95
2023-03-10T15:45:34.113Z,4.63
2023-03-10T15:48:22.748Z,0.60
2023-03-10T15:51:17.445Z,1.92
2023-03-10T15:54:06.121Z,1.92
2023-03-10T15:56:54.783Z,4.28
2023-03-10T15:59:43.858Z,2.97
2023-03-10T16:02:32.652Z,1.38
2023-03-10T16:05:21.718Z,0.95
2023-03-10T16:08:11.871Z,2.83
2023-03-10T16:11:00.526Z,0.50
2023-03-10T16:13:50.230Z,1.90
2023-03-10T16:16:38.863Z,4.88
2023-03-10T16:19:28.193Z,4.95
2023-03-10T16:22:16.841Z,7.97
2023-03-10T16:25:08.930Z,5.43
2023-03-10T16:27:57.644Z,6.78
2023-03-10T16:30:49.796Z,7.00
2023-03-10T16:33:38.528Z,0.88
2023-03-10T16:36:29.648Z,5.50
2023-03-10T16:39:18.318Z,0.60
2023-03-10T16:42:08.810Z,8.30
2023-03-10T16:44:58.072Z,14.80
2023-03-10T16:47:47.387Z,16.23
2023-03-10T16:50:36.087Z,13.60
2023-03-10T16:53:24.738Z,16.17
2023-03-10T16:56:13.548Z,15.75
2023-03-10T16:59:03.542Z,14.07
2023-03-10T17:01:52.838Z,13.75
2023-03-10T17:04:41.360Z,13.48
2023-03-10T17:07:30.186Z,11.30
2023-03-10T17:10:19.104Z,10.48
2023-03-10T17:13:07.716Z,16.02
2023-03-10T17:15:57.997Z,14.63
2023-03-10T17:18:46.769Z,10.35
2023-03-10T17:21:40.372Z,15.88
2023-03-10T17:24:29.564Z,11.77
2023-03-10T17:27:18.248Z,13.25
2023-03-10T17:30:08.230Z,6.93
2023-03-10T17:32:58.384Z,10.73
2023-03-10T17:35:47.276Z,3.28
2023-03-10T17:38:36.298Z,12.02
2023-03-10T17:41:25.048Z,13.45
2023-03-10T17:44:13.996Z,4.25
2023-03-10T17:47:02.765Z,4.28
2023-03-10T17:49:55.101Z,8.45
2023-03-10T17:52:43.729Z,2.95
2023-03-10T17:55:32.571Z,3.15
2023-03-10T17:58:21.936Z,1.90
2023-03-10T18:01:11.901Z,8.32
2023-03-10T18:04:01.786Z,2.78
2023-03-10T18:06:52.230Z,6.93
2023-03-10T18:09:41.046Z,9.50
2023-03-10T18:12:30.021Z,5.57
2023-03-10T18:15:19.023Z,5.10
2023-03-10T18:18:07.678Z,1.95
2023-03-10T18:20:56.257Z,10.63
2023-03-10T18:23:47.124Z,4.57
2023-03-10T18:26:36.685Z,8.45
2023-03-10T18:29:25.506Z,2.25
2023-03-10T18:32:14.211Z,4.05
2023-03-10T18:35:02.945Z,5.38
2023-03-10T18:37:51.669Z,1.88
2023-03-10T18:40:41.786Z,3.33
2023-03-10T18:43:32.211Z,2.15
2023-03-10T18:46:21.240Z,2.45
2023-03-10T18:49:10.336Z,1.30
2023-03-10T18:51:59.076Z,1.25
2023-03-10T18:54:48.670Z,3.83
2023-03-10T18:57:38.821Z,6.10
2023-03-10T19:00:27.886Z,1.27
2023-03-10T19:03:16.508Z,1.55
2023-03-10T19:06:05.575Z,2.08
2023-03-10T19:08:54.182Z,1.65
2023-03-10T19:11:42.778Z,3.17
2023-03-10T19:14:34.868Z,0.47
2023-03-10T19:17:26.410Z,2.75
2023-03-10T19:20:16.907Z,1.52
2023-03-10T19:23:05.561Z,2.70
2023-03-10T19:25:54.196Z,10.32
2023-03-10T19:28:43.041Z,6.07
2023-03-10T19:31:33.259Z,0.63
2023-03-10T19:34:21.927Z,1.55
2023-03-10T19:37:10.708Z,5.10
2023-03-10T19:40:01.681Z,7.78
2023-03-10T19:42:50.337Z,0.70
2023-03-10T19:45:39.054Z,0.90
2023-03-10T19:48:29.192Z,4.20
2023-03-10T19:51:22.170Z,0.77
2023-03-10T19:54:10.759Z,1.65
2023-03-10T19:56:59.360Z,6.75
2023-03-10T19:59:47.970Z,0.30
2023-03-10T20:02:36.730Z,2.05
2023-03-10T20:05:27.197Z,0.40
2023-03-10T20:08:15.893Z,0.30
2023-03-10T20:11:04.708Z,1.73
2023-03-10T20:13:54.953Z,1.65
2023-03-10T20:16:43.780Z,0.85
2023-03-10T20:19:32.499Z,0.43
2023-03-10T20:22:23.503Z,2.55
2023-03-10T20:25:14.404Z,1.83
2023-03-10T20:28:02.919Z,2.63
2023-03-10T20:30:51.554Z,2.65
2023-03-10T20:33:40.323Z,1.40
2023-03-10T20:36:29.060Z,0.20
2023-03-10T20:39:19.125Z,2.65
2023-03-10T20:42:09.370Z,0.98
2023-03-10T20:44:58.221Z,0.55
2023-03-10T20:47:47.987Z,1.15
2023-03-10T20:50:37.568Z,1.55
2023-03-10T20:53:26.434Z,0.30
2023-03-10T20:56:16.574Z,1.90
2023-03-10T20:59:05.284Z,0.10
2023-03-10T21:01:54.401Z,0.43
2023-03-10T21:04:43.170Z,0.20
2023-03-10T21:07:35.878Z,0.38
2023-03-10T21:10:26.056Z,0.65
2023-03-10T21:13:16.035Z,0.10
2023-03-10T21:16:04.792Z,0.52
2023-03-10T21:18:53.342Z,0.55
2023-03-10T21:21:42.095Z,0.20
2023-03-10T21:24:30.752Z,0.25
2023-03-10T21:27:20.882Z,0.65
2023-03-10T21:30:13.841Z,0.10
2023-03-10T21:33:02.580Z,5.30
2023-03-10T21:35:51.269Z,0.38
2023-03-10T21:38:39.863Z,0.52
2023-03-10T21:41:30.644Z,0.63
2023-03-10T21:44:19.279Z,0.30
2023-03-10T21:47:09.229Z,0.65
2023-03-10T21:49:58.093Z,0.73
2023-03-10T21:52:47.584Z,2.55
2023-03-10T21:55:38.223Z,0.20
2023-03-10T22:18:24.998Z,0.10
2023-03-10T22:40:36.770Z,1.95
2023-03-10T22:43:26.878Z,3.42
2023-03-10T22:46:17.115Z,0.10
2023-03-10T22:49:06.144Z,0.20
2023-03-10T22:51:54.813Z,0.77
2023-03-10T22:54:43.554Z,1.08
2023-03-10T22:57:32.221Z,0.68
2023-03-10T23:00:23.279Z,1.77
2023-03-10T23:03:13.944Z,1.38
2023-03-10T23:06:05.279Z,1.25
2023-03-10T23:08:53.858Z,0.40
2023-03-10T23:11:42.655Z,9.68
2023-03-10T23:14:31.299Z,4.05
2023-03-10T23:17:21.345Z,2.95
2023-03-10T23:20:13.947Z,0.47
2023-03-10T23:23:03.762Z,0.20
2023-03-10T23:25:52.584Z,1.90
2023-03-10T23:28:41.258Z,3.10
2023-03-10T23:31:30.001Z,1.88
2023-03-10T23:34:20.520Z,0.20
2023-03-10T23:37:09.155Z,6.70
2023-03-10T23:39:57.809Z,2.60
2023-03-10T23:42:47.162Z,2.63
2023-03-10T23:45:38.194Z,1.00
2023-03-10T23:48:27.211Z,0.40
2023-03-10T23:51:18.553Z,0.32
2023-03-10T23:54:07.321Z,0.60
2023-03-10T23:56:55.975Z,1.02
2023-03-10T23:59:44.674Z,3.90
